createdAt,value
2022-10-03T00:00:13.330Z,12.20
2022-10-03T00:01:18.853Z,12.10
2022-10-03T00:02:12.673Z,12.10
2022-10-03T00:03:22.789Z,12.10
2022-10-03T00:04:07.289Z,12.10
2022-10-03T00:05:11.288Z,12.10
2022-10-03T00:05:54.350Z,12.10
2022-10-03T00:06:44.951Z,12.00
2022-10-03T00:07:38.613Z,12.00
2022-10-03T00:08:27.888Z,12.00
2022-10-03T00:09:21.332Z,12.00
2022-10-03T00:10:05.852Z,12.10
2022-10-03T00:10:52.851Z,12.00
2022-10-03T00:11:35.894Z,12.10
2022-10-03T00:12:17.644Z,12.00
2022-10-03T00:13:03.733Z,12.00
2022-10-03T00:13:44.562Z,12.00
2022-10-03T00:14:26.513Z,12.00
2022-10-03T00:15:04.431Z,12.00
2022-10-03T00:15:44.404Z,12.00
2022-10-03T00:16:20.377Z,12.00
2022-10-03T00:17:02.109Z,12.00
2022-10-03T00:17:45.801Z,12.00
2022-10-03T00:18:35.861Z,12.00
2022-10-03T00:19:21.312Z,12.00
2022-10-03T00:20:03.069Z,12.00
2022-10-03T00:20:48.997Z,11.90
2022-10-03T00:21:35.281Z,11.90
2022-10-03T00:22:18.410Z,11.90
2022-10-03T00:22:55.724Z,11.90
2022-10-03T00:23:37.996Z,11.90
2022-10-03T00:24:22.964Z,11.90
2022-10-03T00:25:12.470Z,12.00
2022-10-03T00:25:56.766Z,11.90
2022-10-03T00:26:37.101Z,11.90
2022-10-03T00:27:15.106Z,11.90
2022-10-03T00:27:52.826Z,12.00
2022-10-03T00:28:50.126Z,12.00
2022-10-03T00:29:47.288Z,11.90
2022-10-03T00:30:21.924Z,11.90
2022-10-03T00:31:09.231Z,12.00
2022-10-03T00:31:52.489Z,12.00
2022-10-03T00:32:38.983Z,11.90
2022-10-03T00:33:19.190Z,11.90
2022-10-03T00:34:03.144Z,11.90
2022-10-03T00:34:53.707Z,11.90
2022-10-03T00:35:49.077Z,11.90
2022-10-03T00:36:31.828Z,11.90
2022-10-03T00:37:26.604Z,11.90
2022-10-03T00:38:20.676Z,11.90
2022-10-03T00:39:24.521Z,11.90
2022-10-03T00:40:33.850Z,11.80
2022-10-03T00:41:19.965Z,11.80
2022-10-03T00:42:32.806Z,11.70
2022-10-03T00:43:41.333Z,11.70
2022-10-03T00:44:51.738Z,11.70
2022-10-03T00:45:56.725Z,11.70
2022-10-03T00:47:11.385Z,11.60
2022-10-03T00:48:02.030Z,11.60
2022-10-03T00:49:13.657Z,11.50
2022-10-03T00:50:19.487Z,11.60
2022-10-03T00:51:20.217Z,11.50
2022-10-03T00:52:03.142Z,11.50
2022-10-03T00:52:48.268Z,11.60
2022-10-03T00:53:44.197Z,11.60
2022-10-03T00:54:45.320Z,11.60
2022-10-03T00:55:28.332Z,11.60
2022-10-03T00:56:21.562Z,11.60
2022-10-03T00:57:09.514Z,11.60
2022-10-03T00:57:58.850Z,11.60
2022-10-03T00:58:45.968Z,11.60
2022-10-03T00:59:34.616Z,11.60
2022-10-03T01:00:17.406Z,11.60
2022-10-03T01:00:52.232Z,11.60
2022-10-03T01:01:34.250Z,11.60
2022-10-03T01:02:30.615Z,11.60
2022-10-03T01:03:19.319Z,11.60
2022-10-03T01:04:06.312Z,11.60
2022-10-03T01:04:53.268Z,11.60
2022-10-03T01:05:38.129Z,11.60
2022-10-03T01:06:28.762Z,11.60
2022-10-03T01:07:13.345Z,11.60
2022-10-03T01:08:12.863Z,11.50
2022-10-03T01:09:29.208Z,11.60
2022-10-03T01:10:10.029Z,11.50
2022-10-03T01:10:52.789Z,11.50
2022-10-03T01:11:38.716Z,11.50
2022-10-03T01:12:35.218Z,11.50
2022-10-03T01:13:23.483Z,11.50
2022-10-03T01:14:08.053Z,11.50
2022-10-03T01:14:54.379Z,11.50
2022-10-03T01:15:37.776Z,11.50
2022-10-03T01:16:18.993Z,11.50
2022-10-03T01:17:02.472Z,11.50
2022-10-03T01:17:48.358Z,11.60
2022-10-03T01:18:32.491Z,11.60
2022-10-03T01:19:22.988Z,11.60
2022-10-03T01:20:15.187Z,11.60
2022-10-03T01:20:58.194Z,11.60
2022-10-03T01:21:41.708Z,11.60
2022-10-03T01:22:38.682Z,11.60
2022-10-03T01:23:58.106Z,11.50
2022-10-03T01:24:50.691Z,11.50
2022-10-03T01:25:38.529Z,11.50
2022-10-03T01:26:30.781Z,11.40
2022-10-03T01:27:04.959Z,11.40
2022-10-03T01:28:00.293Z,11.50
2022-10-03T01:29:04.744Z,11.50
2022-10-03T01:30:05.747Z,11.40
2022-10-03T01:30:42.346Z,11.40
2022-10-03T01:31:17.826Z,11.40
2022-10-03T01:31:58.116Z,11.40
2022-10-03T01:32:38.548Z,11.40
2022-10-03T01:33:15.963Z,11.40
2022-10-03T01:33:54.824Z,11.40
2022-10-03T01:34:32.349Z,11.50
2022-10-03T01:35:17.846Z,11.40
2022-10-03T01:35:55.078Z,11.40
2022-10-03T01:36:32.741Z,11.40
2022-10-03T01:37:11.595Z,11.30
2022-10-03T01:37:53.519Z,11.30
2022-10-03T01:38:29.807Z,11.40
2022-10-03T01:39:09.309Z,11.40
2022-10-03T01:39:51.721Z,11.40
2022-10-03T01:40:29.488Z,11.40
2022-10-03T01:41:07.841Z,11.40
2022-10-03T01:41:49.789Z,11.40
2022-10-03T01:42:40.885Z,11.40
2022-10-03T01:43:21.034Z,11.40
2022-10-03T01:44:00.672Z,11.30
2022-10-03T01:44:45.425Z,11.30
2022-10-03T01:45:29.042Z,11.30
2022-10-03T01:46:09.379Z,11.30
2022-10-03T01:46:48.135Z,11.30
2022-10-03T01:47:24.578Z,11.30
2022-10-03T01:48:02.094Z,11.30
2022-10-03T01:48:43.870Z,11.30
2022-10-03T01:49:21.615Z,11.30
2022-10-03T01:49:59.980Z,11.30
2022-10-03T01:50:38.888Z,11.30
2022-10-03T01:51:13.866Z,11.40
2022-10-03T01:51:55.097Z,11.40
2022-10-03T01:52:40.284Z,11.40
2022-10-03T01:53:19.642Z,11.40
2022-10-03T01:54:14.844Z,11.40
2022-10-03T01:54:54.341Z,11.40
2022-10-03T01:55:34.893Z,11.30
2022-10-03T01:56:15.221Z,11.30
2022-10-03T01:56:55.313Z,11.30
2022-10-03T01:57:36.424Z,11.30
2022-10-03T01:58:12.205Z,11.30
2022-10-03T01:58:52.168Z,11.30
2022-10-03T01:59:38.409Z,11.30
2022-10-03T02:00:13.797Z,11.30
2022-10-03T02:00:52.930Z,11.30
2022-10-03T02:01:32.397Z,11.30
2022-10-03T02:02:12.458Z,11.40
2022-10-03T02:02:49.842Z,11.40
2022-10-03T02:03:27.854Z,11.40
2022-10-03T02:04:06.732Z,11.40
2022-10-03T02:04:45.963Z,11.30
2022-10-03T02:05:25.950Z,11.40
2022-10-03T02:06:06.634Z,11.40
2022-10-03T02:06:47.957Z,11.30
2022-10-03T02:07:30.075Z,11.30
2022-10-03T02:08:05.886Z,11.30
2022-10-03T02:08:50.038Z,11.40
2022-10-03T02:09:31.870Z,11.40
2022-10-03T02:10:13.192Z,11.40
2022-10-03T02:10:53.156Z,11.40
2022-10-03T02:11:31.980Z,11.40
2022-10-03T02:12:09.793Z,11.40
2022-10-03T02:12:51.599Z,11.40
2022-10-03T02:13:27.487Z,11.50
2022-10-03T02:14:15.137Z,11.50
2022-10-03T02:14:54.990Z,11.50
2022-10-03T02:15:31.096Z,11.40
2022-10-03T02:16:11.119Z,11.40
2022-10-03T02:16:45.170Z,11.40
2022-10-03T02:17:28.312Z,11.40
2022-10-03T02:18:12.830Z,11.40
2022-10-03T02:18:54.740Z,11.40
2022-10-03T02:19:30.571Z,11.40
2022-10-03T02:20:08.893Z,11.40
2022-10-03T02:20:47.447Z,11.40
2022-10-03T02:21:21.633Z,11.40
2022-10-03T02:21:56.826Z,11.40
2022-10-03T02:22:33.141Z,11.40
2022-10-03T02:23:24.602Z,11.40
2022-10-03T02:24:18.790Z,11.30
2022-10-03T02:24:56.800Z,11.30
2022-10-03T02:25:51.537Z,11.40
2022-10-03T02:26:58.667Z,11.40
2022-10-03T02:27:54.996Z,11.30
2022-10-03T02:28:59.008Z,11.30
2022-10-03T02:30:08.448Z,11.30
2022-10-03T02:30:57.546Z,11.30
2022-10-03T02:31:59.334Z,11.30
2022-10-03T02:33:02.894Z,11.20
2022-10-03T02:34:01.909Z,11.20
2022-10-03T02:35:05.075Z,11.20
2022-10-03T02:35:56.466Z,11.20
2022-10-03T02:37:23.442Z,11.10
2022-10-03T02:38:13.875Z,11.10
2022-10-03T02:39:08.555Z,11.10
2022-10-03T02:40:25.294Z,11.10
2022-10-03T02:41:18.585Z,11.10
2022-10-03T02:42:17.999Z,11.20
2022-10-03T02:43:38.170Z,11.20
2022-10-03T02:44:42.311Z,11.20
2022-10-03T02:45:55.410Z,11.20
2022-10-03T02:47:03.446Z,11.20
2022-10-03T02:48:39.419Z,11.20
2022-10-03T02:49:40.206Z,11.20
2022-10-03T02:50:48.576Z,11.20
2022-10-03T02:52:05.518Z,11.20
2022-10-03T02:53:16.080Z,11.30
2022-10-03T02:54:20.962Z,11.30
2022-10-03T02:55:38.386Z,11.20
2022-10-03T02:56:34.560Z,11.20
2022-10-03T02:57:42.124Z,11.20
2022-10-03T02:58:42.178Z,11.20
2022-10-03T02:59:45.649Z,11.20
2022-10-03T03:00:20.900Z,11.30
2022-10-03T03:01:24.764Z,11.30
2022-10-03T03:02:32.689Z,11.30
2022-10-03T03:03:42.530Z,11.30
2022-10-03T03:04:56.497Z,11.30
2022-10-03T03:05:44.969Z,11.30
2022-10-03T03:06:43.766Z,11.20
2022-10-03T03:07:31.630Z,11.20
2022-10-03T03:08:37.696Z,11.20
2022-10-03T03:09:54.325Z,11.20
2022-10-03T03:11:06.553Z,11.20
2022-10-03T03:12:03.032Z,11.20
2022-10-03T03:13:07.390Z,11.20
2022-10-03T03:14:00.121Z,11.10
2022-10-03T03:15:18.924Z,11.20
2022-10-03T03:16:33.445Z,11.10
2022-10-03T03:17:24.356Z,11.10
2022-10-03T03:18:04.682Z,11.10
2022-10-03T03:18:39.888Z,11.10
2022-10-03T03:19:19.664Z,11.10
2022-10-03T03:20:10.641Z,11.10
2022-10-03T03:21:02.581Z,11.20
2022-10-03T03:21:42.320Z,11.10
2022-10-03T03:22:32.231Z,11.10
2022-10-03T03:23:19.913Z,11.10
2022-10-03T03:24:10.666Z,11.10
2022-10-03T03:25:01.156Z,11.10
2022-10-03T03:25:47.426Z,11.10
2022-10-03T03:26:54.189Z,11.10
2022-10-03T03:27:47.696Z,11.20
2022-10-03T03:28:33.265Z,11.20
2022-10-03T03:29:14.744Z,11.10
2022-10-03T03:29:57.679Z,11.10
2022-10-03T03:30:36.819Z,11.10
2022-10-03T03:31:12.599Z,11.10
2022-10-03T03:31:51.690Z,11.10
2022-10-03T03:32:42.841Z,11.10
2022-10-03T03:33:26.385Z,11.10
2022-10-03T03:34:07.429Z,11.10
2022-10-03T03:34:50.117Z,11.10
2022-10-03T03:35:33.753Z,11.00
2022-10-03T03:36:13.691Z,11.00
2022-10-03T03:36:54.191Z,11.00
2022-10-03T03:37:34.474Z,11.00
2022-10-03T03:38:18.231Z,11.00
2022-10-03T03:38:59.949Z,11.00
2022-10-03T03:39:54.508Z,10.90
2022-10-03T03:40:39.725Z,10.90
2022-10-03T03:41:23.540Z,10.90
2022-10-03T03:42:20.849Z,10.90
2022-10-03T03:43:24.768Z,10.90
2022-10-03T03:44:13.309Z,10.90
2022-10-03T03:45:02.385Z,10.90
2022-10-03T03:45:46.467Z,10.90
2022-10-03T03:46:33.088Z,10.80
2022-10-03T03:47:28.412Z,10.90
2022-10-03T03:48:25.597Z,10.80
2022-10-03T03:49:08.038Z,10.80
2022-10-03T03:49:57.910Z,10.80
2022-10-03T03:50:39.629Z,10.80
2022-10-03T03:51:22.886Z,10.80
2022-10-03T03:52:10.385Z,10.80
2022-10-03T03:52:56.937Z,10.80
2022-10-03T03:53:54.973Z,10.80
2022-10-03T03:54:55.393Z,10.80
2022-10-03T03:55:48.550Z,10.80
2022-10-03T03:56:43.400Z,10.80
2022-10-03T03:57:28.958Z,10.80
2022-10-03T03:58:13.651Z,10.70
2022-10-03T03:58:54.703Z,10.70
2022-10-03T03:59:41.754Z,10.70
2022-10-03T04:00:17.581Z,10.80
2022-10-03T04:01:03.852Z,10.80
2022-10-03T04:01:56.608Z,10.80
2022-10-03T04:02:53.338Z,10.70
2022-10-03T04:03:38.721Z,10.70
2022-10-03T04:04:22.822Z,10.70
2022-10-03T04:05:08.301Z,10.60
2022-10-03T04:05:56.825Z,10.60
2022-10-03T04:06:41.670Z,10.60
2022-10-03T04:07:27.311Z,10.60
2022-10-03T04:08:23.815Z,10.70
2022-10-03T04:09:16.899Z,10.70
2022-10-03T04:10:11.376Z,10.60
2022-10-03T04:10:54.325Z,10.70
2022-10-03T04:11:33.154Z,10.70
2022-10-03T04:12:15.544Z,10.70
2022-10-03T04:13:28.986Z,10.70
2022-10-03T04:14:24.191Z,10.70
2022-10-03T04:15:11.186Z,10.70
2022-10-03T04:16:01.159Z,10.70
2022-10-03T04:17:10.096Z,10.80
2022-10-03T04:18:17.806Z,10.80
2022-10-03T04:19:03.455Z,10.80
2022-10-03T04:19:48.646Z,10.80
2022-10-03T04:20:33.371Z,10.80
2022-10-03T04:21:42.173Z,10.80
2022-10-03T04:22:31.005Z,10.80
2022-10-03T04:23:21.416Z,10.70
2022-10-03T04:24:19.676Z,10.80
2022-10-03T04:25:17.954Z,10.70
2022-10-03T04:26:10.839Z,10.90
2022-10-03T04:26:59.542Z,10.80
2022-10-03T04:27:53.509Z,10.80
2022-10-03T04:28:44.707Z,10.80
2022-10-03T04:29:41.596Z,10.80
2022-10-03T04:30:17.597Z,10.70
2022-10-03T04:31:02.481Z,10.70
2022-10-03T04:31:44.316Z,10.70
2022-10-03T04:32:41.523Z,10.70
2022-10-03T04:33:29.543Z,10.70
2022-10-03T04:34:21.578Z,10.70
2022-10-03T04:35:25.736Z,10.60
2022-10-03T04:36:23.340Z,10.60
2022-10-03T04:37:28.338Z,10.60
2022-10-03T04:38:12.007Z,10.70
2022-10-03T04:38:51.665Z,10.70
2022-10-03T04:39:33.400Z,10.70
2022-10-03T04:40:25.697Z,10.60
2022-10-03T04:41:05.900Z,10.60
2022-10-03T04:41:45.584Z,10.60
2022-10-03T04:42:40.897Z,10.60
2022-10-03T04:43:20.042Z,10.60
2022-10-03T04:44:00.201Z,10.60
2022-10-03T04:44:44.233Z,10.60
2022-10-03T04:45:31.570Z,10.60
2022-10-03T04:46:22.974Z,10.70
2022-10-03T04:46:58.702Z,10.70
2022-10-03T04:47:39.283Z,10.70
2022-10-03T04:48:16.600Z,10.70
2022-10-03T04:48:56.384Z,10.70
2022-10-03T04:49:36.861Z,10.80
2022-10-03T04:50:24.598Z,10.80
2022-10-03T04:51:07.321Z,10.80
2022-10-03T04:51:55.564Z,10.70
2022-10-03T04:52:39.193Z,10.70
2022-10-03T04:53:22.956Z,10.70
2022-10-03T04:54:02.248Z,10.70
2022-10-03T04:54:48.169Z,10.70
2022-10-03T04:55:28.792Z,10.70
2022-10-03T04:56:14.061Z,10.70
2022-10-03T04:56:53.958Z,10.70
2022-10-03T04:57:35.513Z,10.70
2022-10-03T04:58:18.520Z,10.70
2022-10-03T04:58:56.230Z,10.70
2022-10-03T04:59:46.235Z,10.70
2022-10-03T05:00:24.187Z,10.60
2022-10-03T05:01:06.434Z,10.60
2022-10-03T05:01:50.370Z,10.60
2022-10-03T05:02:47.718Z,10.70
2022-10-03T05:03:36.809Z,10.70
2022-10-03T05:04:22.059Z,10.70
2022-10-03T05:05:27.873Z,10.70
2022-10-03T05:06:06.008Z,10.70
2022-10-03T05:06:48.950Z,10.70
2022-10-03T05:07:29.006Z,10.70
2022-10-03T05:08:12.695Z,10.80
2022-10-03T05:08:52.742Z,10.80
2022-10-03T05:09:32.466Z,10.80
2022-10-03T05:10:23.995Z,10.90
2022-10-03T05:11:12.244Z,10.90
2022-10-03T05:12:00.672Z,10.90
2022-10-03T05:12:44.317Z,10.90
2022-10-03T05:13:22.869Z,11.00
2022-10-03T05:14:03.503Z,11.00
2022-10-03T05:14:52.136Z,11.00
2022-10-03T05:15:30.976Z,11.00
2022-10-03T05:16:14.656Z,11.00
2022-10-03T05:16:54.742Z,11.00
2022-10-03T05:17:37.301Z,11.00
2022-10-03T05:18:19.780Z,11.10
2022-10-03T05:19:01.807Z,11.10
2022-10-03T05:20:05.025Z,11.10
2022-10-03T05:20:47.342Z,11.10
2022-10-03T05:21:32.326Z,11.10
2022-10-03T05:22:17.060Z,11.10
2022-10-03T05:22:57.982Z,11.10
2022-10-03T05:23:45.784Z,11.10
2022-10-03T05:24:27.547Z,11.20
2022-10-03T05:25:11.761Z,11.20
2022-10-03T05:25:53.818Z,11.20
2022-10-03T05:26:50.381Z,11.20
2022-10-03T05:27:29.449Z,11.20
2022-10-03T05:28:10.933Z,11.20
2022-10-03T05:28:52.949Z,11.20
2022-10-03T05:29:32.243Z,11.20
2022-10-03T05:30:09.095Z,11.20
2022-10-03T05:30:46.052Z,11.20
2022-10-03T05:31:33.304Z,11.20
2022-10-03T05:32:17.822Z,11.20
2022-10-03T05:32:56.561Z,11.20
2022-10-03T05:33:39.428Z,11.20
2022-10-03T05:34:21.922Z,11.20
2022-10-03T05:35:18.518Z,11.20
2022-10-03T05:36:10.713Z,11.10
2022-10-03T05:36:58.816Z,11.10
2022-10-03T05:37:51.069Z,11.10
2022-10-03T05:39:21.353Z,11.10
2022-10-03T05:39:58.628Z,11.00
2022-10-03T05:40:35.054Z,11.00
2022-10-03T05:41:23.831Z,10.90
2022-10-03T05:42:23.253Z,10.90
2022-10-03T05:43:05.763Z,10.90
2022-10-03T05:43:50.197Z,10.90
2022-10-03T05:44:39.088Z,10.80
2022-10-03T05:45:24.315Z,10.80
2022-10-03T05:46:09.053Z,10.80
2022-10-03T05:46:56.821Z,10.80
2022-10-03T05:47:49.252Z,10.80
2022-10-03T05:48:33.136Z,10.80
2022-10-03T05:49:28.479Z,10.80
2022-10-03T05:50:28.846Z,10.70
2022-10-03T05:51:33.826Z,10.70
2022-10-03T05:52:34.388Z,10.70
2022-10-03T05:53:24.732Z,10.70
2022-10-03T05:54:57.289Z,10.70
2022-10-03T05:55:40.791Z,10.70
2022-10-03T05:56:27.361Z,10.80
2022-10-03T05:57:18.654Z,10.80
2022-10-03T05:58:14.965Z,10.90
2022-10-03T05:59:20.689Z,10.90
2022-10-03T06:00:14.886Z,11.00
2022-10-03T06:01:13.150Z,11.00
2022-10-03T06:02:15.130Z,11.00
2022-10-03T06:03:00.249Z,11.10
2022-10-03T06:04:05.071Z,11.10
2022-10-03T06:05:14.320Z,11.20
2022-10-03T06:06:17.963Z,11.20
2022-10-03T06:07:04.906Z,11.20
2022-10-03T06:07:52.632Z,11.20
2022-10-03T06:08:48.394Z,11.20
2022-10-03T06:09:57.972Z,11.30
2022-10-03T06:10:51.823Z,11.30
2022-10-03T06:11:55.841Z,11.30
2022-10-03T06:12:34.258Z,11.30
2022-10-03T06:13:26.651Z,11.30
2022-10-03T06:14:28.917Z,11.30
2022-10-03T06:15:25.624Z,11.20
2022-10-03T06:16:06.628Z,11.20
2022-10-03T06:16:49.273Z,11.20
2022-10-03T06:17:53.656Z,11.20
2022-10-03T06:18:58.650Z,11.20
2022-10-03T06:19:48.285Z,11.20
2022-10-03T06:21:00.995Z,11.20
2022-10-03T06:22:10.282Z,11.30
2022-10-03T06:23:21.360Z,11.30
2022-10-03T06:24:21.347Z,11.30
2022-10-03T06:25:31.400Z,11.30
2022-10-03T06:26:43.594Z,11.30
2022-10-03T06:28:02.372Z,11.40
2022-10-03T06:29:04.032Z,11.40
2022-10-03T06:30:07.633Z,11.40
2022-10-03T06:31:00.672Z,11.40
2022-10-03T06:32:16.563Z,11.40
2022-10-03T06:33:17.332Z,11.40
2022-10-03T06:34:17.261Z,11.30
2022-10-03T06:35:24.773Z,11.30
2022-10-03T06:36:22.617Z,11.30
2022-10-03T06:37:51.177Z,11.30
2022-10-03T06:38:56.432Z,11.30
2022-10-03T06:39:55.694Z,11.30
2022-10-03T06:41:04.263Z,11.20
2022-10-03T06:42:25.828Z,11.20
2022-10-03T06:43:26.036Z,11.20
2022-10-03T06:44:25.227Z,11.20
2022-10-03T06:45:40.719Z,11.20
2022-10-03T06:46:52.550Z,11.20
2022-10-03T06:47:38.658Z,11.20
2022-10-03T06:48:36.158Z,11.20
2022-10-03T06:49:31.152Z,11.20
2022-10-03T06:50:38.715Z,11.30
2022-10-03T06:51:45.024Z,11.20
2022-10-03T06:52:49.184Z,11.30
2022-10-03T06:53:44.471Z,11.30
2022-10-03T06:55:05.335Z,11.30
2022-10-03T06:56:04.609Z,11.30
2022-10-03T06:57:06.456Z,11.30
2022-10-03T06:58:17.114Z,11.30
2022-10-03T06:59:10.517Z,11.30
2022-10-03T07:00:09.113Z,11.40
2022-10-03T07:00:55.883Z,11.40
2022-10-03T07:02:04.732Z,11.30
2022-10-03T07:03:24.444Z,11.30
2022-10-03T07:04:46.063Z,11.40
2022-10-03T07:06:03.537Z,11.40
2022-10-03T07:07:08.810Z,11.50
2022-10-03T07:08:29.729Z,11.40
2022-10-03T07:09:53.648Z,11.40
2022-10-03T07:10:42.845Z,11.30
2022-10-03T07:11:34.549Z,11.40
2022-10-03T07:12:47.361Z,11.50
2022-10-03T07:14:09.697Z,11.50
2022-10-03T07:15:15.901Z,11.50
2022-10-03T07:16:26.892Z,11.40
2022-10-03T07:17:18.201Z,11.50
2022-10-03T07:18:20.402Z,11.50
2022-10-03T07:19:15.101Z,11.50
2022-10-03T07:20:26.879Z,11.50
2022-10-03T07:21:41.667Z,11.60
2022-10-03T07:22:50.427Z,11.60
2022-10-03T07:24:03.322Z,11.60
2022-10-03T07:25:19.074Z,11.60
2022-10-03T07:26:21.647Z,11.60
2022-10-03T07:27:24.830Z,11.70
2022-10-03T07:28:22.917Z,11.70
2022-10-03T07:29:23.361Z,11.70
2022-10-03T07:30:10.545Z,11.70
2022-10-03T07:31:02.527Z,11.70
2022-10-03T07:31:45.875Z,11.70
2022-10-03T07:32:42.308Z,11.80
2022-10-03T07:33:58.724Z,11.70
2022-10-03T07:35:03.161Z,11.70
2022-10-03T07:36:02.172Z,11.70
2022-10-03T07:37:13.640Z,11.70
2022-10-03T07:38:43.516Z,11.80
2022-10-03T07:39:56.518Z,11.70
2022-10-03T07:40:56.770Z,11.80
2022-10-03T07:42:00.614Z,11.80
2022-10-03T07:43:12.732Z,11.80
2022-10-03T07:44:15.993Z,11.80
2022-10-03T07:45:20.377Z,11.80
2022-10-03T07:46:20.878Z,11.90
2022-10-03T07:47:39.879Z,11.90
2022-10-03T07:49:01.269Z,11.90
2022-10-03T07:49:55.400Z,11.90
2022-10-03T07:50:51.766Z,11.90
2022-10-03T07:51:32.012Z,11.90
2022-10-03T07:52:43.637Z,12.00
2022-10-03T07:53:43.287Z,12.00
2022-10-03T07:54:51.148Z,12.00
2022-10-03T07:55:33.558Z,12.00
2022-10-03T07:56:25.345Z,12.00
2022-10-03T07:57:11.973Z,12.00
2022-10-03T07:58:18.294Z,12.00
2022-10-03T07:59:13.593Z,12.00
2022-10-03T08:00:05.473Z,12.00
2022-10-03T08:00:55.261Z,12.00
2022-10-03T08:01:47.364Z,12.00
2022-10-03T08:02:50.489Z,12.00
2022-10-03T08:04:08.345Z,12.10
2022-10-03T08:05:14.441Z,12.10
2022-10-03T08:06:26.524Z,12.10
2022-10-03T08:07:11.680Z,12.10
2022-10-03T08:08:09.289Z,12.20
2022-10-03T08:09:05.391Z,12.10
2022-10-03T08:09:59.171Z,12.00
2022-10-03T08:11:00.329Z,12.00
2022-10-03T08:12:18.581Z,12.00
2022-10-03T08:13:11.080Z,12.00
2022-10-03T08:14:13.154Z,12.00
2022-10-03T08:14:56.916Z,11.90
2022-10-03T08:15:36.098Z,11.90
2022-10-03T08:16:23.939Z,11.90
2022-10-03T08:17:49.748Z,11.90
2022-10-03T08:18:57.840Z,11.80
2022-10-03T08:19:56.001Z,11.80
2022-10-03T08:20:48.341Z,11.70
2022-10-03T08:21:30.728Z,11.60
2022-10-03T08:22:11.665Z,11.60
2022-10-03T08:22:59.329Z,11.60
2022-10-03T08:24:21.677Z,11.60
2022-10-03T08:25:27.021Z,11.60
2022-10-03T08:26:13.683Z,11.60
2022-10-03T08:27:13.748Z,11.60
2022-10-03T08:28:24.237Z,11.50
2022-10-03T08:29:19.856Z,11.50
2022-10-03T08:30:18.793Z,11.60
2022-10-03T08:31:17.565Z,11.80
2022-10-03T08:32:21.193Z,11.60
2022-10-03T08:33:21.780Z,11.60
2022-10-03T08:34:23.329Z,11.70
2022-10-03T08:35:12.901Z,11.70
2022-10-03T08:36:34.408Z,11.70
2022-10-03T08:37:38.632Z,11.70
2022-10-03T08:38:50.957Z,11.80
2022-10-03T08:39:42.177Z,11.70
2022-10-03T08:40:54.288Z,11.70
2022-10-03T08:42:17.526Z,11.70
2022-10-03T08:43:15.393Z,11.70
2022-10-03T08:44:25.030Z,11.70
2022-10-03T08:45:23.621Z,11.70
2022-10-03T08:46:07.053Z,11.70
2022-10-03T08:47:11.300Z,11.70
2022-10-03T08:48:20.777Z,11.70
2022-10-03T08:49:02.506Z,11.70
2022-10-03T08:50:05.670Z,11.80
2022-10-03T08:51:04.201Z,11.80
2022-10-03T08:51:58.790Z,11.80
2022-10-03T08:52:43.423Z,11.80
2022-10-03T08:54:02.590Z,11.90
2022-10-03T08:55:03.236Z,11.90
2022-10-03T08:55:47.818Z,11.90
2022-10-03T08:56:25.454Z,12.00
2022-10-03T08:57:14.682Z,12.00
2022-10-03T08:58:20.426Z,12.00
2022-10-03T08:59:46.964Z,12.10
2022-10-03T09:00:21.667Z,12.10
2022-10-03T09:01:30.171Z,12.10
2022-10-03T09:02:43.295Z,12.10
2022-10-03T09:03:44.606Z,12.20
2022-10-03T09:04:54.740Z,12.10
2022-10-03T09:05:46.466Z,12.20
2022-10-03T09:07:05.138Z,12.20
2022-10-03T09:08:18.165Z,12.20
2022-10-03T09:09:14.883Z,12.20
2022-10-03T09:10:19.281Z,12.20
2022-10-03T09:11:17.065Z,12.20
2022-10-03T09:12:25.837Z,12.30
2022-10-03T09:13:14.274Z,12.20
2022-10-03T09:14:20.312Z,12.20
2022-10-03T09:15:22.347Z,12.20
2022-10-03T09:16:25.990Z,12.20
2022-10-03T09:17:12.074Z,12.20
2022-10-03T09:18:21.600Z,12.30
2022-10-03T09:19:07.127Z,12.30
2022-10-03T09:20:04.951Z,12.20
2022-10-03T09:21:06.946Z,12.20
2022-10-03T09:22:06.119Z,12.20
2022-10-03T09:23:21.729Z,12.20
2022-10-03T09:24:18.485Z,12.10
2022-10-03T09:25:19.727Z,12.10
2022-10-03T09:26:13.238Z,12.10
2022-10-03T09:27:25.086Z,12.20
2022-10-03T09:28:36.066Z,12.30
2022-10-03T09:29:41.102Z,12.40
2022-10-03T09:30:26.925Z,12.50
2022-10-03T09:31:16.460Z,12.50
2022-10-03T09:32:30.464Z,12.50
2022-10-03T09:33:41.934Z,12.60
2022-10-03T09:34:39.043Z,12.60
2022-10-03T09:35:50.584Z,12.70
2022-10-03T09:36:55.931Z,12.70
2022-10-03T09:38:03.931Z,12.80
2022-10-03T09:38:57.319Z,12.90
2022-10-03T09:40:07.610Z,12.90
2022-10-03T09:41:15.892Z,12.80
2022-10-03T09:42:25.594Z,12.80
2022-10-03T09:43:24.997Z,12.80
2022-10-03T09:44:23.777Z,12.80
2022-10-03T09:45:32.339Z,12.80
2022-10-03T09:46:31.214Z,12.80
2022-10-03T09:47:35.043Z,12.80
2022-10-03T09:48:27.481Z,12.80
2022-10-03T09:49:27.873Z,12.80
2022-10-03T09:50:43.218Z,12.90
2022-10-03T09:51:34.131Z,13.10
2022-10-03T09:52:32.918Z,13.00
2022-10-03T09:53:47.635Z,13.00
2022-10-03T09:54:54.085Z,13.10
2022-10-03T09:55:41.571Z,13.10
2022-10-03T09:56:41.224Z,13.00
2022-10-03T09:57:40.121Z,13.00
2022-10-03T09:58:35.933Z,13.00
2022-10-03T09:59:30.743Z,13.00
2022-10-03T10:00:16.333Z,13.00
2022-10-03T10:01:16.245Z,13.00
2022-10-03T10:01:57.268Z,12.90
2022-10-03T10:03:09.178Z,12.90
2022-10-03T10:04:12.985Z,12.90
2022-10-03T10:05:02.295Z,12.90
2022-10-03T10:06:03.543Z,12.80
2022-10-03T10:06:48.675Z,12.80
2022-10-03T10:08:00.245Z,12.80
2022-10-03T10:09:08.156Z,12.90
2022-10-03T10:10:18.470Z,12.90
2022-10-03T10:11:17.930Z,12.90
2022-10-03T10:12:19.073Z,12.90
2022-10-03T10:13:20.903Z,12.90
2022-10-03T10:14:30.300Z,12.90
2022-10-03T10:15:28.172Z,13.00
2022-10-03T10:16:16.817Z,13.00
2022-10-03T10:17:37.266Z,13.10
2022-10-03T10:18:35.764Z,13.10
2022-10-03T10:19:40.984Z,13.20
2022-10-03T10:20:30.560Z,13.20
2022-10-03T10:21:49.918Z,13.20
2022-10-03T10:22:53.736Z,13.20
2022-10-03T10:23:47.785Z,13.30
2022-10-03T10:24:58.749Z,13.30
2022-10-03T10:25:50.061Z,13.50
2022-10-03T10:27:00.579Z,13.60
2022-10-03T10:28:19.286Z,13.70
2022-10-03T10:29:17.880Z,13.70
2022-10-03T10:30:19.770Z,13.80
2022-10-03T10:31:18.767Z,13.80
2022-10-03T10:32:29.304Z,13.70
2022-10-03T10:33:29.761Z,13.60
2022-10-03T10:34:44.209Z,13.50
2022-10-03T10:35:51.955Z,13.60
2022-10-03T10:37:05.665Z,13.50
2022-10-03T10:38:20.921Z,13.40
2022-10-03T10:39:44.569Z,13.40
2022-10-03T10:40:59.781Z,13.30
2022-10-03T10:42:15.898Z,13.20
2022-10-03T10:43:25.066Z,13.10
2022-10-03T10:44:37.456Z,13.10
2022-10-03T10:45:35.836Z,13.00
2022-10-03T10:46:36.685Z,13.00
2022-10-03T10:47:50.910Z,13.00
2022-10-03T10:49:24.074Z,13.00
2022-10-03T10:50:29.607Z,13.10
2022-10-03T10:51:40.546Z,13.20
2022-10-03T10:52:45.648Z,13.20
2022-10-03T10:54:10.164Z,13.30
2022-10-03T10:55:16.929Z,13.30
2022-10-03T10:56:27.644Z,13.40
2022-10-03T10:57:33.139Z,13.50
2022-10-03T10:58:58.002Z,13.50
2022-10-03T11:00:15.112Z,13.70
2022-10-03T11:01:24.867Z,13.80
2022-10-03T11:02:31.947Z,13.80
2022-10-03T11:03:59.281Z,13.90
2022-10-03T11:05:07.021Z,14.00
2022-10-03T11:06:41.696Z,14.10
2022-10-03T11:07:55.877Z,14.20
2022-10-03T11:09:14.430Z,14.20
2022-10-03T11:10:33.652Z,14.20
2022-10-03T11:11:32.792Z,14.10
2022-10-03T11:12:45.659Z,14.10
2022-10-03T11:14:11.613Z,14.00
2022-10-03T11:15:28.269Z,14.00
2022-10-03T11:16:41.610Z,14.00
2022-10-03T11:17:57.661Z,14.00
2022-10-03T11:19:08.134Z,14.00
2022-10-03T11:20:10.142Z,14.00
2022-10-03T11:21:25.810Z,14.00
2022-10-03T11:22:32.168Z,14.00
2022-10-03T11:23:56.112Z,14.10
2022-10-03T11:25:05.141Z,14.20
2022-10-03T11:26:27.750Z,14.30
2022-10-03T11:27:39.592Z,14.30
2022-10-03T11:28:46.879Z,14.40
2022-10-03T11:29:50.625Z,14.50
2022-10-03T11:30:56.881Z,14.60
2022-10-03T11:32:08.240Z,14.60
2022-10-03T11:33:19.749Z,14.70
2022-10-03T11:34:23.596Z,14.60
2022-10-03T11:35:45.180Z,14.60
2022-10-03T11:36:59.050Z,14.60
2022-10-03T11:37:40.785Z,14.60
2022-10-03T11:38:20.269Z,14.50
2022-10-03T11:39:02.922Z,14.50
2022-10-03T11:39:43.394Z,14.50
2022-10-03T11:40:31.211Z,14.50
2022-10-03T11:41:14.341Z,14.50
2022-10-03T11:41:52.311Z,14.50
2022-10-03T11:42:32.817Z,14.50
2022-10-03T11:43:56.379Z,14.50
2022-10-03T11:44:34.736Z,14.50
2022-10-03T11:45:16.829Z,14.60